Time;durP1;ratioP1;P1;durP2;ratioP2;P2;SDS_P1;SDS_P2;PMS_P1;PMS_P2;Temp;Humidity;BMP_temperature;BMP_pressure;BME280_temperature;BME280_humidity;BME280_pressure;Samples;Min_cycle;Max_cycle;Signal;HPM_P1;HPM_P2
2023/05/09 00:01:52;;;;;;;33.97;27.75;;;;;;;;;;5044905;28;20291;-71
2023/05/09 00:04:18;;;;;;;35.97;28.00;;;;;;;;;;5043203;28;20192;-70
2023/05/09 00:06:44;;;;;;;36.92;28.88;;;;;;;;;;5036681;28;20234;-71
2023/05/09 00:09:09;;;;;;;34.10;27.17;;;;;;;;;;5027687;28;20189;-71
2023/05/09 00:11:34;;;;;;;34.78;27.58;;;;;;;;;;5041688;28;20205;-71
2023/05/09 00:14:01;;;;;;;35.63;27.73;;;;;;;;;;5045105;28;20250;-71
2023/05/09 00:16:27;;;;;;;35.47;26.88;;;;;;;;;;5044883;28;20197;-71
2023/05/09 00:18:53;;;;;;;36.25;28.20;;;;;;;;;;5033587;28;20205;-71
2023/05/09 00:21:18;;;;;;;36.28;28.58;;;;;;;;;;5039075;28;20202;-71
2023/05/09 00:23:43;;;;;;;36.75;28.90;;;;;;;;;;5030616;28;20398;-72
2023/05/09 00:26:09;;;;;;;41.15;29.80;;;;;;;;;;5033571;28;20653;-71
2023/05/09 00:28:34;;;;;;;36.65;27.92;;;;;;;;;;5030116;28;20201;-71
2023/05/09 00:31:00;;;;;;;42.80;28.88;;;;;;;;;;5042470;28;20261;-70
2023/05/09 00:33:25;;;;;;;38.67;30.08;;;;;;;;;;5045284;28;20394;-70
2023/05/09 00:35:52;;;;;;;34.50;27.48;;;;;;;;;;5041089;28;20208;-71
2023/05/09 00:38:18;;;;;;;36.10;27.23;;;;;;;;;;5042507;28;20341;-71
2023/05/09 00:40:43;;;;;;;31.58;26.42;;;;;;;;;;5042115;28;20679;-71
2023/05/09 00:43:08;;;;;;;34.47;26.58;;;;;;;;;;5038807;28;20189;-71
2023/05/09 00:45:34;;;;;;;35.70;28.30;;;;;;;;;;5049303;28;20633;-72
2023/05/09 00:47:59;;;;;;;36.47;26.83;;;;;;;;;;5041893;28;20193;-71
2023/05/09 00:50:25;;;;;;;37.53;27.40;;;;;;;;;;5048193;28;20624;-72
2023/05/09 00:52:50;;;;;;;35.30;26.63;;;;;;;;;;5039511;28;20254;-71
2023/05/09 00:55:17;;;;;;;33.03;27.38;;;;;;;;;;5038979;28;20202;-71
2023/05/09 00:57:42;;;;;;;38.45;28.35;;;;;;;;;;5046168;28;20585;-71
2023/05/09 01:00:12;;;;;;;35.20;28.10;;;;;;;;;;5035084;28;20250;-71
2023/05/09 01:02:41;;;;;;;40.85;29.27;;;;;;;;;;5038219;28;20277;-70
2023/05/09 01:05:07;;;;;;;35.60;28.33;;;;;;;;;;5034043;28;20273;-70
2023/05/09 01:07:59;;;;;;;42.45;29.77;;;;;;;;;;5042432;28;20585;-70
2023/05/09 01:10:37;;;;;;;36.90;28.70;;;;;;;;;;5045037;28;20182;-70
2023/05/09 01:13:31;;;;;;;37.45;28.25;;;;;;;;;;5043812;28;20217;-71
2023/05/09 01:16:30;;;;;;;37.85;28.13;;;;;;;;;;5045310;28;20263;-70
2023/05/09 01:19:13;;;;;;;39.83;27.35;;;;;;;;;;5048627;28;20217;-70
2023/05/09 01:21:43;;;;;;;38.33;28.48;;;;;;;;;;5040134;28;20246;-70
2023/05/09 01:24:27;;;;;;;39.80;29.42;;;;;;;;;;5045357;28;20239;-71
2023/05/09 01:27:11;;;;;;;39.03;28.80;;;;;;;;;;5034867;28;20665;-71
2023/05/09 01:30:01;;;;;;;35.95;28.33;;;;;;;;;;5031973;28;20685;-70
2023/05/09 01:32:29;;;;;;;37.13;29.23;;;;;;;;;;5044424;28;20236;-70
2023/05/09 01:34:58;;;;;;;36.97;28.30;;;;;;;;;;5046464;28;20268;-70
2023/05/09 01:37:29;;;;;;;37.00;28.75;;;;;;;;;;5046875;28;20197;-71
2023/05/09 01:39:58;;;;;;;40.63;30.35;;;;;;;;;;5038537;28;20206;-70
2023/05/09 01:42:26;;;;;;;41.72;30.45;;;;;;;;;;5044712;28;20205;-70
2023/05/09 01:44:52;;;;;;;48.55;30.20;;;;;;;;;;5039906;28;20190;-71
2023/05/09 01:47:19;;;;;;;37.42;29.55;;;;;;;;;;5038458;28;20226;-70
2023/05/09 01:49:46;;;;;;;39.53;27.95;;;;;;;;;;5042582;28;20181;-70
2023/05/09 01:52:15;;;;;;;39.63;29.25;;;;;;;;;;5032420;28;20189;-70
2023/05/09 01:54:43;;;;;;;38.42;29.58;;;;;;;;;;5040609;28;20190;-70
2023/05/09 01:57:10;;;;;;;43.20;30.23;;;;;;;;;;5038604;28;20197;-70
2023/05/09 01:59:39;;;;;;;44.58;30.80;;;;;;;;;;5046947;28;20696;-71
2023/05/09 02:02:06;;;;;;;38.53;29.27;;;;;;;;;;5047513;28;20217;-70
2023/05/09 02:04:34;;;;;;;40.85;29.98;;;;;;;;;;5038741;28;20262;-70
2023/05/09 02:07:00;;;;;;;47.83;30.67;;;;;;;;;;5047358;28;20181;-70
2023/05/09 02:09:26;;;;;;;38.65;29.90;;;;;;;;;;5035760;28;20264;-70
2023/05/09 02:11:52;;;;;;;41.75;29.83;;;;;;;;;;5036494;28;20451;-70
2023/05/09 02:14:17;;;;;;;41.42;30.13;;;;;;;;;;5049331;28;20209;-70
2023/05/09 02:16:43;;;;;;;42.95;31.33;;;;;;;;;;5047646;28;20217;-70
2023/05/09 02:19:08;;;;;;;40.53;29.02;;;;;;;;;;5045412;28;20551;-71
2023/05/09 02:21:34;;;;;;;38.05;28.67;;;;;;;;;;5042457;28;20215;-71
2023/05/09 02:23:59;;;;;;;44.60;29.48;;;;;;;;;;5038137;28;20196;-70
2023/05/09 02:26:26;;;;;;;44.38;28.63;;;;;;;;;;5047448;28;20676;-70
2023/05/09 02:28:53;;;;;;;38.80;29.88;;;;;;;;;;5034093;28;20608;-71
2023/05/09 02:31:21;;;;;;;38.08;28.85;;;;;;;;;;5049135;28;20196;-71
2023/05/09 02:33:47;;;;;;;42.50;28.58;;;;;;;;;;5049768;28;20617;-71
2023/05/09 02:36:13;;;;;;;38.65;28.90;;;;;;;;;;5047294;28;20196;-70
2023/05/09 02:38:40;;;;;;;38.10;28.80;;;;;;;;;;5035014;28;20216;-70
2023/05/09 02:41:06;;;;;;;36.50;27.95;;;;;;;;;;5048309;28;20201;-71
2023/05/09 02:43:31;;;;;;;35.80;28.52;;;;;;;;;;5047224;28;20240;-70
2023/05/09 02:45:57;;;;;;;41.53;28.98;;;;;;;;;;5042847;28;20287;-70
2023/05/09 02:48:22;;;;;;;37.63;27.80;;;;;;;;;;5045739;28;20603;-70
2023/05/09 02:50:47;;;;;;;38.13;28.30;;;;;;;;;;5039210;28;20205;-70
2023/05/09 02:53:13;;;;;;;38.63;28.88;;;;;;;;;;5046679;28;20251;-70
2023/05/09 02:55:38;;;;;;;39.28;28.38;;;;;;;;;;5045043;28;20193;-70
2023/05/09 02:58:04;;;;;;;37.88;29.42;;;;;;;;;;5030322;28;20214;-71
2023/05/09 03:00:29;;;;;;;37.17;28.02;;;;;;;;;;5036029;28;20209;-71
2023/05/09 03:02:54;;;;;;;37.13;26.88;;;;;;;;;;5048631;28;20552;-71
2023/05/09 03:05:20;;;;;;;36.33;27.55;;;;;;;;;;5043653;28;20201;-71
2023/05/09 03:07:46;;;;;;;37.67;27.98;;;;;;;;;;5048703;28;20262;-71
2023/05/09 03:10:11;;;;;;;36.55;27.67;;;;;;;;;;5046350;28;20186;-71
2023/05/09 03:12:37;;;;;;;36.22;27.40;;;;;;;;;;5039368;28;20197;-71
2023/05/09 03:15:06;;;;;;;41.92;27.52;;;;;;;;;;5048250;28;20320;-71
2023/05/09 03:17:31;;;;;;;32.72;25.98;;;;;;;;;;5041632;28;20198;-71
2023/05/09 03:19:57;;;;;;;38.55;26.58;;;;;;;;;;5028869;28;20273;-71
2023/05/09 03:22:22;;;;;;;42.20;27.45;;;;;;;;;;5043625;28;20319;-71
2023/05/09 03:24:48;;;;;;;38.20;26.80;;;;;;;;;;5047879;28;20201;-71
2023/05/09 03:27:13;;;;;;;36.83;27.45;;;;;;;;;;5044135;28;20547;-70
2023/05/09 03:29:38;;;;;;;37.40;26.85;;;;;;;;;;5038348;28;20262;-70
2023/05/09 03:32:04;;;;;;;39.20;27.95;;;;;;;;;;5039554;28;20185;-70
2023/05/09 03:34:30;;;;;;;39.38;29.50;;;;;;;;;;5044933;28;20236;-70
2023/05/09 03:36:55;;;;;;;40.40;29.30;;;;;;;;;;5047093;28;20274;-70
2023/05/09 03:39:20;;;;;;;38.85;29.08;;;;;;;;;;5040092;28;20221;-70
2023/05/09 03:41:46;;;;;;;41.03;28.98;;;;;;;;;;5040881;28;20232;-71
2023/05/09 03:44:11;;;;;;;38.95;29.50;;;;;;;;;;5028688;28;20212;-70
2023/05/09 03:46:36;;;;;;;44.78;28.52;;;;;;;;;;5042682;28;20237;-70
2023/05/09 03:49:03;;;;;;;36.70;26.55;;;;;;;;;;5045903;28;20189;-71
2023/05/09 03:51:29;;;;;;;44.92;28.92;;;;;;;;;;5040762;28;20190;-71
2023/05/09 03:53:55;;;;;;;42.22;28.30;;;;;;;;;;5045135;28;20182;-70
2023/05/09 03:56:21;;;;;;;40.22;28.55;;;;;;;;;;5035087;28;20646;-71
2023/05/09 03:58:46;;;;;;;40.00;28.23;;;;;;;;;;5047012;28;20267;-70
2023/05/09 04:01:12;;;;;;;41.03;29.65;;;;;;;;;;5036195;28;20218;-71
2023/05/09 04:03:37;;;;;;;40.72;30.25;;;;;;;;;;5041104;28;20379;-71
2023/05/09 04:06:04;;;;;;;43.97;30.60;;;;;;;;;;5040988;28;20190;-70
2023/05/09 04:08:29;;;;;;;47.55;31.77;;;;;;;;;;5039799;28;20204;-70
2023/05/09 04:10:54;;;;;;;39.78;29.35;;;;;;;;;;5047266;28;20193;-71
2023/05/09 04:13:20;;;;;;;45.75;31.83;;;;;;;;;;5045651;28;20201;-71
2023/05/09 04:15:45;;;;;;;46.05;31.92;;;;;;;;;;5046729;28;20194;-70
2023/05/09 04:18:10;;;;;;;41.97;30.67;;;;;;;;;;5019568;28;20451;-71
2023/05/09 04:20:36;;;;;;;43.70;32.63;;;;;;;;;;5035407;28;20225;-70
2023/05/09 04:23:01;;;;;;;43.58;32.13;;;;;;;;;;5034583;28;20196;-70
2023/05/09 04:25:28;;;;;;;43.83;31.40;;;;;;;;;;5034596;28;20606;-70
2023/05/09 04:27:53;;;;;;;41.17;30.17;;;;;;;;;;5053302;28;20205;-70
2023/05/09 04:30:19;;;;;;;48.78;32.78;;;;;;;;;;5045850;28;20189;-70
2023/05/09 04:32:45;;;;;;;43.42;30.02;;;;;;;;;;5030448;28;20194;-70
2023/05/09 04:35:12;;;;;;;43.25;31.05;;;;;;;;;;5045410;28;20193;-70
2023/05/09 04:37:38;;;;;;;43.35;32.33;;;;;;;;;;5037235;28;20186;-70
2023/05/09 04:40:07;;;;;;;40.75;30.90;;;;;;;;;;5043680;28;20622;-70
2023/05/09 04:42:33;;;;;;;39.47;30.33;;;;;;;;;;5036169;28;20200;-70
2023/05/09 04:44:59;;;;;;;36.60;26.70;;;;;;;;;;5040633;28;20197;-70
2023/05/09 04:47:25;;;;;;;43.33;30.52;;;;;;;;;;5041654;28;20260;-70
2023/05/09 04:50:09;;;;;;;42.78;32.22;;;;;;;;;;5038735;28;20626;-70
2023/05/09 04:52:34;;;;;;;53.67;36.10;;;;;;;;;;5033316;28;20503;-70
2023/05/09 04:55:00;;;;;;;50.35;35.50;;;;;;;;;;5035057;28;20198;-71
2023/05/09 04:57:25;;;;;;;58.80;36.88;;;;;;;;;;5040595;28;20183;-71
2023/05/09 04:59:51;;;;;;;52.65;34.33;;;;;;;;;;5044399;28;20224;-71
2023/05/09 05:02:17;;;;;;;60.10;37.55;;;;;;;;;;5040250;28;20221;-70
2023/05/09 05:04:42;;;;;;;52.55;32.90;;;;;;;;;;5045301;28;20213;-71
2023/05/09 05:07:08;;;;;;;72.22;40.55;;;;;;;;;;5029391;28;20194;-71
2023/05/09 05:09:33;;;;;;;68.60;38.75;;;;;;;;;;5042026;28;20240;-70
2023/05/09 05:11:58;;;;;;;63.53;38.67;;;;;;;;;;5042728;28;20216;-71
2023/05/09 05:14:24;;;;;;;67.97;38.53;;;;;;;;;;5041870;28;20250;-71
2023/05/09 05:16:49;;;;;;;83.20;41.70;;;;;;;;;;5041219;28;20672;-71
2023/05/09 05:19:14;;;;;;;68.82;38.88;;;;;;;;;;5041649;28;20286;-71
2023/05/09 05:21:40;;;;;;;74.55;39.88;;;;;;;;;;5052477;28;20231;-71
2023/05/09 05:24:05;;;;;;;83.72;43.55;;;;;;;;;;5039233;28;20558;-71
2023/05/09 05:26:31;;;;;;;77.45;39.20;;;;;;;;;;5044981;28;20288;-70
2023/05/09 05:28:56;;;;;;;84.55;43.20;;;;;;;;;;5036415;28;20194;-71
2023/05/09 05:31:21;;;;;;;82.68;45.42;;;;;;;;;;5046622;28;20563;-71
2023/05/09 05:33:47;;;;;;;82.05;43.55;;;;;;;;;;5042836;28;20193;-71
2023/05/09 05:36:12;;;;;;;75.43;43.15;;;;;;;;;;5046557;28;20185;-71
2023/05/09 05:38:38;;;;;;;78.53;43.13;;;;;;;;;;5046801;28;20232;-71
2023/05/09 05:41:03;;;;;;;65.28;38.92;;;;;;;;;;5051927;28;20190;-70
2023/05/09 05:43:29;;;;;;;85.10;44.58;;;;;;;;;;5047980;28;20209;-71
2023/05/09 05:45:54;;;;;;;86.60;44.80;;;;;;;;;;5042166;28;20711;-71
2023/05/09 05:48:20;;;;;;;82.15;44.65;;;;;;;;;;5049619;28;20671;-71
2023/05/09 05:50:45;;;;;;;63.63;39.50;;;;;;;;;;5047858;28;20558;-71
2023/05/09 05:53:10;;;;;;;76.95;44.20;;;;;;;;;;5050300;28;20220;-71
2023/05/09 05:55:36;;;;;;;80.88;45.40;;;;;;;;;;5052478;28;20520;-71
2023/05/09 05:58:01;;;;;;;80.80;44.13;;;;;;;;;;5049026;28;20197;-70
2023/05/09 06:00:27;;;;;;;76.95;42.85;;;;;;;;;;5055428;28;20282;-71
2023/05/09 06:02:52;;;;;;;73.65;42.47;;;;;;;;;;5045698;28;20224;-70
2023/05/09 06:05:18;;;;;;;78.88;42.05;;;;;;;;;;5047530;28;20266;-69
2023/05/09 06:07:43;;;;;;;78.63;42.78;;;;;;;;;;5041747;28;20300;-70
2023/05/09 06:10:09;;;;;;;71.93;43.05;;;;;;;;;;5038512;28;20196;-71
2023/05/09 06:12:34;;;;;;;75.55;41.65;;;;;;;;;;5041106;28;20262;-70
2023/05/09 06:15:00;;;;;;;75.15;43.05;;;;;;;;;;5045207;28;20573;-71
2023/05/09 06:17:25;;;;;;;71.20;41.60;;;;;;;;;;5045786;28;20633;-70
2023/05/09 06:19:51;;;;;;;66.90;39.40;;;;;;;;;;5042335;28;20217;-70
2023/05/09 06:22:16;;;;;;;67.95;40.92;;;;;;;;;;5038265;28;20215;-70
2023/05/09 06:24:42;;;;;;;69.75;40.15;;;;;;;;;;5036760;28;20270;-70
2023/05/09 06:27:07;;;;;;;69.03;39.08;;;;;;;;;;5038394;28;20264;-70
2023/05/09 06:29:33;;;;;;;69.78;39.88;;;;;;;;;;5032672;28;20540;-71
2023/05/09 06:31:58;;;;;;;68.78;38.40;;;;;;;;;;5036675;28;20210;-71
2023/05/09 06:34:24;;;;;;;66.53;40.42;;;;;;;;;;5046412;28;20193;-71
2023/05/09 06:36:49;;;;;;;63.67;38.80;;;;;;;;;;5041271;28;20192;-70
2023/05/09 06:39:14;;;;;;;67.15;39.80;;;;;;;;;;5037419;28;20609;-70
2023/05/09 06:41:40;;;;;;;67.93;40.58;;;;;;;;;;5028544;28;20200;-70
2023/05/09 06:44:05;;;;;;;72.30;39.83;;;;;;;;;;5046324;28;20676;-70
2023/05/09 06:46:31;;;;;;;62.13;37.83;;;;;;;;;;5038339;28;20226;-70
2023/05/09 06:48:56;;;;;;;68.75;39.22;;;;;;;;;;5035213;28;20240;-69
2023/05/09 06:51:21;;;;;;;68.40;38.85;;;;;;;;;;5039725;28;20273;-70
2023/05/09 06:53:47;;;;;;;67.55;39.47;;;;;;;;;;5040636;28;20195;-70
2023/05/09 06:56:12;;;;;;;63.17;37.80;;;;;;;;;;5036529;28;20285;-71
2023/05/09 06:58:38;;;;;;;71.43;40.83;;;;;;;;;;5044363;28;20201;-70
2023/05/09 07:01:03;;;;;;;69.63;38.13;;;;;;;;;;5048797;28;20292;-70
2023/05/09 07:03:29;;;;;;;67.05;39.92;;;;;;;;;;5047660;28;20652;-70
2023/05/09 07:05:57;;;;;;;62.13;38.97;;;;;;;;;;5047611;28;20186;-71
2023/05/09 07:08:23;;;;;;;68.22;40.15;;;;;;;;;;5043679;28;20511;-70
2023/05/09 07:10:48;;;;;;;67.30;38.78;;;;;;;;;;5046217;28;20197;-70
2023/05/09 07:13:14;;;;;;;66.90;37.72;;;;;;;;;;5049100;28;20197;-70
2023/05/09 07:15:39;;;;;;;63.28;38.20;;;;;;;;;;5047730;28;20193;-70
2023/05/09 07:18:04;;;;;;;66.68;38.15;;;;;;;;;;5032755;28;20185;-71
2023/05/09 07:20:30;;;;;;;64.55;35.92;;;;;;;;;;5053582;28;20197;-69
2023/05/09 07:22:57;;;;;;;63.45;36.95;;;;;;;;;;5042555;28;20193;-69
2023/05/09 07:25:22;;;;;;;62.50;35.38;;;;;;;;;;5039917;28;20223;-70
2023/05/09 07:27:47;;;;;;;66.72;37.10;;;;;;;;;;5041395;28;20590;-70
2023/05/09 07:30:13;;;;;;;63.33;35.03;;;;;;;;;;5046127;28;20178;-69
2023/05/09 07:32:38;;;;;;;55.95;33.58;;;;;;;;;;5038230;28;20538;-70
2023/05/09 07:35:04;;;;;;;56.67;34.58;;;;;;;;;;5047903;28;20200;-69
2023/05/09 07:37:30;;;;;;;57.15;33.08;;;;;;;;;;5038893;28;20239;-70
2023/05/09 07:39:55;;;;;;;61.10;35.05;;;;;;;;;;5035240;28;20297;-70
2023/05/09 07:42:21;;;;;;;53.33;33.17;;;;;;;;;;5037843;28;20183;-69
2023/05/09 07:44:46;;;;;;;55.33;33.88;;;;;;;;;;5039828;28;20223;-69
2023/05/09 07:47:11;;;;;;;54.45;32.75;;;;;;;;;;5031176;28;20218;-70
2023/05/09 07:49:39;;;;;;;55.63;31.55;;;;;;;;;;5029860;28;20182;-69
2023/05/09 07:52:04;;;;;;;55.55;31.75;;;;;;;;;;5035544;28;20185;-69
2023/05/09 07:54:30;;;;;;;49.05;31.45;;;;;;;;;;5040494;28;20590;-70
2023/05/09 07:56:55;;;;;;;51.47;31.02;;;;;;;;;;5032835;28;20193;-70
2023/05/09 07:59:20;;;;;;;46.83;29.20;;;;;;;;;;5046170;28;20811;-70
2023/05/09 08:01:46;;;;;;;48.53;30.77;;;;;;;;;;5039949;28;20232;-70
2023/05/09 08:04:11;;;;;;;49.28;31.95;;;;;;;;;;5045452;28;20190;-71
2023/05/09 08:06:36;;;;;;;53.83;31.67;;;;;;;;;;5032241;28;20701;-70
2023/05/09 08:09:03;;;;;;;51.85;32.08;;;;;;;;;;5041420;28;20211;-70
2023/05/09 08:11:31;;;;;;;50.45;32.20;;;;;;;;;;5040560;28;20185;-70
2023/05/09 08:13:56;;;;;;;47.67;29.35;;;;;;;;;;5040078;28;20186;-70
2023/05/09 08:16:22;;;;;;;49.00;30.15;;;;;;;;;;5041504;28;20743;-70
2023/05/09 08:18:47;;;;;;;44.67;29.58;;;;;;;;;;5038163;28;20212;-70
2023/05/09 08:21:12;;;;;;;45.55;30.05;;;;;;;;;;5039451;28;20243;-70
2023/05/09 08:23:39;;;;;;;47.72;31.02;;;;;;;;;;5039195;28;20190;-70
2023/05/09 08:26:04;;;;;;;45.55;29.75;;;;;;;;;;5047692;28;20239;-70
2023/05/09 08:28:30;;;;;;;44.25;29.00;;;;;;;;;;5036338;28;20178;-70
2023/05/09 08:30:56;;;;;;;48.35;30.35;;;;;;;;;;5036197;28;20198;-69
2023/05/09 08:33:22;;;;;;;39.85;26.88;;;;;;;;;;5032075;28;20217;-70
2023/05/09 08:35:52;;;;;;;45.05;28.85;;;;;;;;;;5036829;28;20221;-70
2023/05/09 08:38:18;;;;;;;43.65;29.80;;;;;;;;;;5042752;28;20230;-70
2023/05/09 08:40:43;;;;;;;38.38;25.70;;;;;;;;;;5037261;28;20193;-69
2023/05/09 08:43:10;;;;;;;43.00;27.85;;;;;;;;;;5035972;28;20201;-70
2023/05/09 08:45:44;;;;;;;44.78;29.05;;;;;;;;;;5042791;28;20193;-70
2023/05/09 08:48:10;;;;;;;41.30;27.55;;;;;;;;;;5033721;28;20208;-69
2023/05/09 08:50:36;;;;;;;42.42;27.88;;;;;;;;;;5046110;28;20661;-69
2023/05/09 08:53:02;;;;;;;41.25;27.95;;;;;;;;;;5047563;28;20272;-69
2023/05/09 08:55:28;;;;;;;39.45;27.58;;;;;;;;;;5046266;28;20189;-68
2023/05/09 08:57:53;;;;;;;38.55;28.05;;;;;;;;;;5046183;28;20201;-68
2023/05/09 09:00:19;;;;;;;35.22;26.38;;;;;;;;;;5045502;28;20274;-69
2023/05/09 09:02:46;;;;;;;43.45;28.80;;;;;;;;;;5047285;28;20212;-70
2023/05/09 09:05:12;;;;;;;40.00;27.63;;;;;;;;;;5041868;28;20193;-68
2023/05/09 09:07:38;;;;;;;47.53;29.50;;;;;;;;;;5050211;28;20479;-70
2023/05/09 09:10:06;;;;;;;39.53;27.30;;;;;;;;;;5051308;28;20238;-68
2023/05/09 09:12:33;;;;;;;46.42;29.50;;;;;;;;;;5050010;28;20262;-67
2023/05/09 09:15:03;;;;;;;39.33;28.23;;;;;;;;;;5039054;28;20272;-67
2023/05/09 09:17:29;;;;;;;45.35;30.08;;;;;;;;;;5031666;28;20272;-67
2023/05/09 09:19:59;;;;;;;46.28;30.05;;;;;;;;;;5037507;28;20209;-68
2023/05/09 09:22:33;;;;;;;41.83;28.88;;;;;;;;;;5049289;28;20547;-68
2023/05/09 09:25:02;;;;;;;48.17;29.30;;;;;;;;;;5049827;28;20531;-68
2023/05/09 09:27:28;;;;;;;47.63;31.15;;;;;;;;;;5032970;28;20517;-68
2023/05/09 09:29:54;;;;;;;43.67;29.40;;;;;;;;;;5039492;28;20193;-67
2023/05/09 09:32:21;;;;;;;48.58;31.42;;;;;;;;;;5047730;28;20215;-69
2023/05/09 09:34:49;;;;;;;45.42;30.83;;;;;;;;;;5044799;28;20614;-68
2023/05/09 09:37:22;;;;;;;42.92;29.50;;;;;;;;;;5039235;28;20204;-67
2023/05/09 09:39:55;;;;;;;44.17;30.23;;;;;;;;;;5036712;28;20232;-68
2023/05/09 09:42:22;;;;;;;42.45;29.63;;;;;;;;;;5043093;28;20186;-67
2023/05/09 09:44:55;;;;;;;48.42;30.70;;;;;;;;;;5035946;28;20330;-69
2023/05/09 09:47:30;;;;;;;42.03;30.27;;;;;;;;;;5046807;28;20233;-69
2023/05/09 09:49:55;;;;;;;48.55;31.50;;;;;;;;;;5038845;28;20228;-67
2023/05/09 09:52:24;;;;;;;48.20;32.97;;;;;;;;;;5041311;28;20494;-69
2023/05/09 09:54:49;;;;;;;48.45;32.65;;;;;;;;;;5047718;28;20189;-68
2023/05/09 09:57:34;;;;;;;48.90;32.42;;;;;;;;;;5030615;28;20599;-68
2023/05/09 10:00:00;;;;;;;48.08;32.20;;;;;;;;;;5032419;28;20624;-68
2023/05/09 10:02:25;;;;;;;48.92;33.95;;;;;;;;;;5030900;28;20201;-67
2023/05/09 10:04:51;;;;;;;46.75;32.92;;;;;;;;;;5039740;28;20251;-67
2023/05/09 10:07:20;;;;;;;47.38;31.58;;;;;;;;;;5049710;28;20531;-67
2023/05/09 10:09:48;;;;;;;45.50;31.98;;;;;;;;;;5056522;28;20185;-67
2023/05/09 10:12:17;;;;;;;45.13;32.80;;;;;;;;;;5044153;28;20301;-68
2023/05/09 10:14:43;;;;;;;51.20;33.42;;;;;;;;;;5040402;28;20184;-67
2023/05/09 10:17:12;;;;;;;51.03;33.97;;;;;;;;;;5045198;28;20387;-69
2023/05/09 10:19:42;;;;;;;46.55;32.80;;;;;;;;;;5045744;28;20340;-67
2023/05/09 10:22:10;;;;;;;45.65;31.45;;;;;;;;;;5046584;28;20689;-67
2023/05/09 10:24:46;;;;;;;49.00;34.13;;;;;;;;;;5050520;28;20205;-68
2023/05/09 10:27:12;;;;;;;52.17;34.92;;;;;;;;;;5039558;28;20217;-69
2023/05/09 10:29:50;;;;;;;51.85;36.25;;;;;;;;;;5036255;28;20182;-68
2023/05/09 10:32:26;;;;;;;51.75;33.83;;;;;;;;;;5032078;28;20200;-68
2023/05/09 10:34:55;;;;;;;45.05;31.00;;;;;;;;;;5045804;28;20625;-68
2023/05/09 10:37:21;;;;;;;43.50;29.10;;;;;;;;;;5047228;28;20548;-68
2023/05/09 10:39:51;;;;;;;43.97;30.92;;;;;;;;;;5038470;28;20206;-68
2023/05/09 10:42:18;;;;;;;40.58;29.77;;;;;;;;;;5039045;28;20186;-70
2023/05/09 10:44:45;;;;;;;44.80;28.55;;;;;;;;;;5041603;28;20253;-67
2023/05/09 10:47:12;;;;;;;33.65;24.83;;;;;;;;;;5030946;28;20519;-68
2023/05/09 10:49:38;;;;;;;35.95;27.17;;;;;;;;;;5039945;28;20185;-67
2023/05/09 10:52:03;;;;;;;32.00;23.20;;;;;;;;;;5041922;28;20178;-67
2023/05/09 10:54:32;;;;;;;33.63;24.58;;;;;;;;;;5029577;28;20265;-67
2023/05/09 10:56:58;;;;;;;34.85;23.73;;;;;;;;;;5048069;28;20210;-67
2023/05/09 10:59:50;;;;;;;32.45;23.40;;;;;;;;;;5042170;28;20286;-67
2023/05/09 11:02:19;;;;;;;29.67;22.88;;;;;;;;;;5030979;28;20210;-68
2023/05/09 11:04:45;;;;;;;26.73;19.88;;;;;;;;;;5047724;28;20213;-68
2023/05/09 11:07:26;;;;;;;23.80;16.30;;;;;;;;;;5048015;28;20543;-69
2023/05/09 11:10:06;;;;;;;15.73;12.18;;;;;;;;;;5035535;28;20236;-68
2023/05/09 11:12:31;;;;;;;14.93;9.65;;;;;;;;;;5039540;28;21128;-68
2023/05/09 11:15:06;;;;;;;14.18;11.70;;;;;;;;;;5041519;28;20213;-67
2023/05/09 11:17:31;;;;;;;14.77;12.63;;;;;;;;;;5039847;28;20191;-68
2023/05/09 11:19:59;;;;;;;16.40;12.23;;;;;;;;;;5045800;28;20301;-68
2023/05/09 11:22:26;;;;;;;16.48;12.05;;;;;;;;;;5042411;28;20193;-69
2023/05/09 11:25:09;;;;;;;14.98;12.32;;;;;;;;;;5050015;28;20312;-68
2023/05/09 11:27:50;;;;;;;18.23;10.85;;;;;;;;;;5037162;28;20532;-68
2023/05/09 11:30:18;;;;;;;14.85;10.20;;;;;;;;;;5037298;28;20193;-68
2023/05/09 11:32:52;;;;;;;14.95;10.68;;;;;;;;;;5043239;28;20197;-68
2023/05/09 11:35:19;;;;;;;13.20;10.65;;;;;;;;;;5045877;28;20618;-67
2023/05/09 11:37:46;;;;;;;11.13;9.93;;;;;;;;;;5048213;28;20224;-68
2023/05/09 11:40:13;;;;;;;13.00;10.00;;;;;;;;;;5044958;28;20202;-68
2023/05/09 11:42:43;;;;;;;12.98;10.27;;;;;;;;;;5044128;28;20186;-68
2023/05/09 11:45:12;;;;;;;14.43;10.20;;;;;;;;;;5045790;28;20271;-68
2023/05/09 11:47:38;;;;;;;12.07;9.77;;;;;;;;;;5036385;28;20713;-68
2023/05/09 11:50:11;;;;;;;13.35;9.82;;;;;;;;;;5029570;28;20186;-69
2023/05/09 11:52:38;;;;;;;14.93;10.75;;;;;;;;;;5028934;28;20186;-68
2023/05/09 11:55:07;;;;;;;12.90;10.05;;;;;;;;;;5028980;28;20189;-67
2023/05/09 11:57:34;;;;;;;12.40;10.35;;;;;;;;;;5033317;28;20190;-68
2023/05/09 12:00:00;;;;;;;13.23;11.43;;;;;;;;;;5042199;28;20206;-67
2023/05/09 12:02:26;;;;;;;13.60;10.38;;;;;;;;;;5039507;28;20640;-67
2023/05/09 12:04:53;;;;;;;15.45;10.82;;;;;;;;;;5033607;28;20209;-67
2023/05/09 12:07:19;;;;;;;13.95;10.43;;;;;;;;;;5038874;28;20205;-67
2023/05/09 12:09:47;;;;;;;14.20;10.00;;;;;;;;;;5048604;28;20178;-68
2023/05/09 12:12:13;;;;;;;12.38;9.70;;;;;;;;;;5041915;28;20214;-69
2023/05/09 12:14:40;;;;;;;14.32;11.10;;;;;;;;;;5028331;28;20216;-69
2023/05/09 12:17:06;;;;;;;14.52;11.43;;;;;;;;;;5039715;28;20280;-69
2023/05/09 12:19:32;;;;;;;17.25;13.27;;;;;;;;;;5038007;28;20217;-68
2023/05/09 12:21:59;;;;;;;21.67;16.20;;;;;;;;;;5046087;28;20185;-68
2023/05/09 12:24:26;;;;;;;20.60;16.15;;;;;;;;;;5039742;28;20643;-68
2023/05/09 12:26:52;;;;;;;21.52;16.83;;;;;;;;;;5044163;28;20193;-68
2023/05/09 12:29:20;;;;;;;19.42;15.65;;;;;;;;;;5027337;28;20201;-68
2023/05/09 12:31:46;;;;;;;19.85;16.15;;;;;;;;;;5040150;28;20204;-68
2023/05/09 12:34:11;;;;;;;22.98;16.48;;;;;;;;;;5047485;28;20181;-69
2023/05/09 12:36:37;;;;;;;22.92;17.35;;;;;;;;;;5041419;28;20260;-68
2023/05/09 12:39:11;;;;;;;21.90;15.38;;;;;;;;;;5028331;28;20221;-68
2023/05/09 12:41:49;;;;;;;22.30;15.48;;;;;;;;;;5036420;28;20186;-68
2023/05/09 12:44:23;;;;;;;20.60;15.82;;;;;;;;;;5042947;28;20197;-68
2023/05/09 12:46:53;;;;;;;18.27;15.45;;;;;;;;;;5036338;28;20292;-69
2023/05/09 12:49:20;;;;;;;21.23;16.58;;;;;;;;;;5033270;28;20281;-68
2023/05/09 12:51:49;;;;;;;20.83;16.05;;;;;;;;;;5042424;28;20272;-67
2023/05/09 12:54:28;;;;;;;23.17;17.00;;;;;;;;;;5043962;28;20245;-68
2023/05/09 12:56:55;;;;;;;22.63;16.25;;;;;;;;;;5043933;28;20605;-67
2023/05/09 12:59:29;;;;;;;22.10;16.80;;;;;;;;;;5044753;28;20201;-69
2023/05/09 13:01:59;;;;;;;18.88;15.98;;;;;;;;;;5049765;28;20217;-67
2023/05/09 13:04:26;;;;;;;20.48;16.02;;;;;;;;;;5030334;28;20272;-68
2023/05/09 13:06:56;;;;;;;21.30;16.45;;;;;;;;;;5036206;28;20269;-67
2023/05/09 13:09:26;;;;;;;27.42;17.42;;;;;;;;;;5046641;28;20181;-68
2023/05/09 13:11:52;;;;;;;19.15;17.13;;;;;;;;;;5039848;28;20231;-67
2023/05/09 13:14:19;;;;;;;18.25;16.27;;;;;;;;;;5041968;28;20221;-67
2023/05/09 13:16:45;;;;;;;21.38;16.65;;;;;;;;;;5037054;28;20311;-67
2023/05/09 13:19:11;;;;;;;20.52;16.83;;;;;;;;;;5040975;28;20226;-67
2023/05/09 13:21:36;;;;;;;21.25;17.25;;;;;;;;;;5036990;28;20272;-67
2023/05/09 13:24:02;;;;;;;21.83;16.52;;;;;;;;;;5038246;28;20254;-69
2023/05/09 13:26:28;;;;;;;17.88;15.90;;;;;;;;;;5045653;28;20610;-67
2023/05/09 13:28:53;;;;;;;19.52;16.98;;;;;;;;;;5045195;28;20197;-68
2023/05/09 13:31:19;;;;;;;26.42;16.27;;;;;;;;;;5041250;28;20198;-68
2023/05/09 13:33:44;;;;;;;18.50;15.45;;;;;;;;;;5027118;28;20240;-68
2023/05/09 13:36:10;;;;;;;20.15;16.40;;;;;;;;;;5035268;28;20650;-67
2023/05/09 13:38:37;;;;;;;22.70;16.00;;;;;;;;;;5040322;28;20231;-68
2023/05/09 13:41:03;;;;;;;17.50;15.50;;;;;;;;;;5044285;28;20737;-68
2023/05/09 13:43:29;;;;;;;18.58;16.52;;;;;;;;;;5035634;28;20271;-68
2023/05/09 13:45:54;;;;;;;21.58;16.05;;;;;;;;;;5053216;28;20235;-67
2023/05/09 13:48:20;;;;;;;19.48;16.38;;;;;;;;;;5044291;28;20208;-68
2023/05/09 13:50:45;;;;;;;16.80;15.00;;;;;;;;;;5034269;28;20178;-68
2023/05/09 13:53:11;;;;;;;19.45;15.75;;;;;;;;;;5039711;28;20200;-67
2023/05/09 13:55:36;;;;;;;18.33;14.48;;;;;;;;;;5041886;28;20186;-66
2023/05/09 13:58:02;;;;;;;18.00;15.18;;;;;;;;;;5042014;28;20190;-67
2023/05/09 14:00:27;;;;;;;18.17;14.93;;;;;;;;;;5039283;28;20708;-68
2023/05/09 14:02:53;;;;;;;17.25;14.88;;;;;;;;;;5047626;28;20189;-68
2023/05/09 14:05:18;;;;;;;17.67;14.70;;;;;;;;;;5046924;28;20242;-68
2023/05/09 14:07:44;;;;;;;15.40;13.80;;;;;;;;;;5057034;28;20189;-68
2023/05/09 14:10:10;;;;;;;16.08;14.32;;;;;;;;;;5048942;28;20268;-68
2023/05/09 14:12:38;;;;;;;15.32;13.73;;;;;;;;;;5050979;28;20589;-70
2023/05/09 14:15:05;;;;;;;18.67;14.32;;;;;;;;;;5041949;28;20193;-67
2023/05/09 14:17:30;;;;;;;17.38;13.75;;;;;;;;;;5037520;28;20259;-68